Time;durP1;ratioP1;P1;durP2;ratioP2;P2;SDS_P1;SDS_P2;PMS_P1;PMS_P2;Temp;Humidity;BMP_temperature;BMP_pressure;BME280_temperature;BME280_humidity;BME280_pressure;Samples;Min_cycle;Max_cycle;Signal;HPM_P1;HPM_P2
2022/08/23 00:01:52;;;;;;;4.47;2.60;;;17.90;73.50;;;;;;5074080;28;20740;-82
2022/08/23 00:04:22;;;;;;;2.20;2.10;;;17.80;73.90;;;;;;5068518;28;20714;-82
2022/08/23 00:06:51;;;;;;;2.90;2.17;;;17.70;75.20;;;;;;5067932;28;21183;-82
2022/08/23 00:09:19;;;;;;;2.53;2.37;;;17.70;75.30;;;;;;5069644;28;20630;-82
2022/08/23 00:11:49;;;;;;;3.70;2.43;;;17.60;75.40;;;;;;5086392;28;21222;-83
2022/08/23 00:14:20;;;;;;;2.50;2.30;;;17.80;74.60;;;;;;5070242;28;20628;-83
2022/08/23 00:16:47;;;;;;;3.00;2.53;;;17.80;73.40;;;;;;5075848;28;20796;-84
2022/08/23 00:19:16;;;;;;;2.80;2.30;;;17.70;74.90;;;;;;5076006;28;20712;-84
2022/08/23 00:21:45;;;;;;;2.30;2.10;;;17.60;75.70;;;;;;5073098;28;20695;-82
2022/08/23 00:24:13;;;;;;;2.33;2.13;;;17.40;77.00;;;;;;5077382;28;20664;-80
2022/08/23 00:27:00;;;;;;;3.73;2.43;;;17.30;77.80;;;;;;5071043;28;21196;-84
2022/08/23 00:29:30;;;;;;;4.17;3.00;;;17.40;78.30;;;;;;5049323;28;20634;-85
2022/08/23 00:31:57;;;;;;;3.00;2.70;;;17.40;78.50;;;;;;5053598;28;20657;-82
2022/08/23 00:34:25;;;;;;;2.97;2.47;;;17.50;78.20;;;;;;5060468;28;21188;-83
2022/08/23 00:36:52;;;;;;;3.83;2.90;;;17.40;78.40;;;;;;5059979;28;21087;-83
2022/08/23 00:39:20;;;;;;;3.20;2.90;;;17.30;79.10;;;;;;5047217;28;20680;-83
2022/08/23 00:41:49;;;;;;;2.10;1.90;;;17.30;79.30;;;;;;5058438;28;20710;-83
2022/08/23 00:49:57;;;;;;;2.57;2.37;;;17.50;76.10;;;;;;5060099;28;20634;-85
2022/08/23 00:52:31;;;;;;;2.60;2.03;;;17.40;77.70;;;;;;5050125;28;20700;-84
2022/08/23 00:54:59;;;;;;;3.90;2.63;;;17.30;78.50;;;;;;5057653;28;20670;-84
2022/08/23 00:57:28;;;;;;;2.80;2.60;;;17.20;79.30;;;;;;5053295;28;20641;-83
2022/08/23 00:59:58;;;;;;;2.57;2.37;;;17.30;78.90;;;;;;5058374;28;21030;-83
2022/08/23 01:02:25;;;;;;;3.13;2.60;;;17.40;78.10;;;;;;5054196;28;20625;-84
2022/08/23 01:04:56;;;;;;;2.47;2.27;;;17.40;76.50;;;;;;5057159;28;20680;-84
2022/08/23 01:07:33;;;;;;;2.87;2.60;;;17.30;76.30;;;;;;5065139;28;20676;-82
2022/08/23 01:10:04;;;;;;;2.20;2.10;;;17.30;76.80;;;;;;5067070;28;20638;-83
2022/08/23 01:12:35;;;;;;;2.73;2.53;;;17.20;78.80;;;;;;5052361;28;20663;-84
2022/08/23 01:15:09;;;;;;;2.73;2.50;;;17.10;79.40;;;;;;5067318;28;20624;-82
2022/08/23 01:17:41;;;;;;;2.27;2.10;;;17.00;79.80;;;;;;5064463;28;20622;-84
2022/08/23 01:20:11;;;;;;;2.07;1.97;;;17.00;79.70;;;;;;5058361;28;21263;-84
2022/08/23 01:22:43;;;;;;;2.03;1.80;;;16.90;79.80;;;;;;5047420;28;20646;-85
2022/08/23 01:25:16;;;;;;;1.90;1.80;;;16.80;80.50;;;;;;5067384;28;20618;-85
2022/08/23 01:27:46;;;;;;;1.90;1.80;;;16.70;81.00;;;;;;5054773;28;21184;-84
2022/08/23 01:30:17;;;;;;;2.23;1.90;;;16.80;80.60;;;;;;5046964;28;20641;-84
2022/08/23 01:32:47;;;;;;;2.90;2.70;;;16.70;80.80;;;;;;5047915;28;21282;-86
2022/08/23 01:35:15;;;;;;;2.20;2.10;;;16.60;81.10;;;;;;5057883;28;20618;-86
2022/08/23 01:37:43;;;;;;;2.73;2.20;;;16.60;81.60;;;;;;5055877;28;20646;-86
2022/08/23 01:40:12;;;;;;;3.17;2.53;;;16.60;81.70;;;;;;5047272;28;20623;-87
2022/08/23 01:42:40;;;;;;;2.80;2.03;;;16.80;80.00;;;;;;5052769;28;20646;-85
2022/08/23 01:45:10;;;;;;;2.00;1.90;;;17.40;81.20;;;;;;5061208;28;21326;-86
2022/08/23 01:47:38;;;;;;;2.13;2.00;;;16.70;80.00;;;;;;5055635;28;20632;-84
2022/08/23 01:50:07;;;;;;;3.13;2.30;;;16.70;80.70;;;;;;5062237;28;20675;-86
2022/08/23 01:52:34;;;;;;;3.20;2.47;;;16.60;81.60;;;;;;5059389;28;20657;-87
2022/08/23 01:55:02;;;;;;;2.30;2.20;;;16.60;81.30;;;;;;5060427;28;20632;-84
2022/08/23 01:57:32;;;;;;;2.17;1.97;;;16.70;80.60;;;;;;5045305;28;20658;-84
2022/08/23 01:59:59;;;;;;;2.27;2.13;;;16.60;80.80;;;;;;5055606;28;21016;-85
2022/08/23 02:02:26;;;;;;;2.57;2.37;;;16.40;80.80;;;;;;5048607;28;21222;-84
2022/08/23 02:04:53;;;;;;;3.00;2.67;;;16.40;81.40;;;;;;5046846;28;20623;-83
2022/08/23 02:07:25;;;;;;;5.87;2.83;;;16.50;80.50;;;;;;5046173;28;21279;-85
2022/08/23 02:09:52;;;;;;;2.13;2.03;;;16.50;80.50;;;;;;5047489;28;20704;-84
2022/08/23 02:12:19;;;;;;;4.03;2.53;;;16.50;81.40;;;;;;5057599;28;21204;-86
2022/08/23 02:14:47;;;;;;;1.93;1.80;;;16.50;79.40;;;;;;5047149;28;20618;-84
2022/08/23 02:17:14;;;;;;;1.83;1.73;;;16.50;79.80;;;;;;5054724;28;20762;-82
2022/08/23 02:19:42;;;;;;;1.93;1.83;;;16.50;81.00;;;;;;5069457;28;21041;-81
2022/08/23 02:22:10;;;;;;;1.73;1.63;;;16.60;81.10;;;;;;5052155;28;20721;-83
2022/08/23 02:24:41;;;;;;;2.70;2.50;;;16.60;81.10;;;;;;5069215;28;20655;-83
2022/08/23 02:27:09;;;;;;;2.53;2.33;;;16.50;81.90;;;;;;5050274;28;21023;-82
2022/08/23 02:29:36;;;;;;;1.97;1.87;;;16.50;82.30;;;;;;5063771;28;20632;-85
2022/08/23 02:32:05;;;;;;;2.30;1.87;;;16.40;83.10;;;;;;5065577;28;20626;-82
2022/08/23 02:34:32;;;;;;;2.40;2.20;;;16.40;83.90;;;;;;5065878;28;20614;-82
2022/08/23 02:37:01;;;;;;;2.63;2.43;;;16.30;84.10;;;;;;5061803;28;20680;-81
2022/08/23 02:39:29;;;;;;;2.47;2.23;;;16.40;81.90;;;;;;5066794;28;21219;-84
2022/08/23 02:41:56;;;;;;;2.17;1.97;;;16.40;84.10;;;;;;5070048;28;21183;-84
2022/08/23 02:44:23;;;;;;;3.57;2.97;;;16.30;84.20;;;;;;5069073;28;20736;-82
2022/08/23 02:46:51;;;;;;;2.60;2.40;;;16.30;84.50;;;;;;5068213;28;20690;-83
2022/08/23 02:49:20;;;;;;;3.20;1.80;;;16.30;84.60;;;;;;5069144;28;20629;-82
2022/08/23 02:51:48;;;;;;;3.13;2.40;;;16.30;84.40;;;;;;5050111;28;20962;-83
2022/08/23 02:54:15;;;;;;;2.67;2.47;;;16.30;84.70;;;;;;5064939;28;20697;-82
2022/08/23 02:56:43;;;;;;;2.63;2.40;;;16.30;84.40;;;;;;5052740;28;21009;-84
2022/08/23 02:59:10;;;;;;;1.97;1.80;;;16.40;83.10;;;;;;5051461;28;20657;-82
2022/08/23 03:01:39;;;;;;;2.70;2.50;;;16.40;82.00;;;;;;5068684;28;20632;-82
2022/08/23 03:04:08;;;;;;;3.03;2.83;;;16.40;83.50;;;;;;5050977;28;20713;-82
2022/08/23 03:06:36;;;;;;;2.13;2.03;;;16.40;83.30;;;;;;5049061;28;20618;-84
2022/08/23 03:09:05;;;;;;;2.80;2.40;;;16.30;84.10;;;;;;5050658;28;20657;-83
2022/08/23 03:11:32;;;;;;;2.10;1.90;;;16.20;85.00;;;;;;5050780;28;20684;-82
2022/08/23 03:14:00;;;;;;;2.60;2.40;;;16.10;85.40;;;;;;5067222;28;20625;-83
2022/08/23 03:16:27;;;;;;;2.30;1.97;;;16.10;84.00;;;;;;5067064;28;20644;-84
2022/08/23 03:18:54;;;;;;;2.93;2.10;;;16.10;82.90;;;;;;5047595;28;20729;-84
2022/08/23 03:21:21;;;;;;;2.03;1.93;;;16.10;83.30;;;;;;5049748;28;20663;-81
2022/08/23 03:23:50;;;;;;;3.03;2.73;;;16.10;85.00;;;;;;5051804;28;20681;-84
2022/08/23 03:26:17;;;;;;;2.80;2.27;;;16.10;85.80;;;;;;5048146;28;20657;-82
2022/08/23 03:28:45;;;;;;;2.10;1.80;;;16.10;86.00;;;;;;5048713;28;20783;-83
2022/08/23 03:31:13;;;;;;;4.73;2.87;;;16.10;85.90;;;;;;5048683;28;20642;-82
2022/08/23 03:33:41;;;;;;;2.53;1.97;;;16.00;86.20;;;;;;5054231;28;20719;-84
2022/08/23 03:36:10;;;;;;;4.30;2.30;;;16.00;84.60;;;;;;5067924;28;20657;-81
2022/08/23 03:38:41;;;;;;;2.30;2.13;;;16.00;85.50;;;;;;5068027;28;20946;-84
2022/08/23 03:41:09;;;;;;;2.37;2.17;;;15.90;85.80;;;;;;5063295;28;20641;-81
2022/08/23 03:43:37;;;;;;;2.20;2.00;;;15.70;86.60;;;;;;5059040;28;20638;-83
2022/08/23 03:46:04;;;;;;;2.07;1.87;;;15.70;87.20;;;;;;5060119;28;20721;-81
2022/08/23 03:48:31;;;;;;;2.63;2.43;;;15.60;87.60;;;;;;5048439;28;20741;-82
2022/08/23 03:50:59;;;;;;;2.43;2.20;;;15.60;88.30;;;;;;5054620;28;20910;-85
2022/08/23 03:53:26;;;;;;;2.33;2.13;;;15.50;87.80;;;;;;5050918;28;20658;-81
2022/08/23 03:55:55;;;;;;;3.47;2.10;;;15.50;88.30;;;;;;5049590;28;20737;-82
2022/08/23 03:58:24;;;;;;;2.40;2.20;;;15.50;88.50;;;;;;5063861;28;20686;-84
2022/08/23 04:00:51;;;;;;;3.60;2.00;;;15.60;87.50;;;;;;5065408;28;20707;-82
2022/08/23 04:03:18;;;;;;;2.60;2.40;;;15.70;86.00;;;;;;5049241;28;20703;-84
2022/08/23 04:05:45;;;;;;;1.90;1.80;;;15.70;85.40;;;;;;5060177;28;20763;-81
2022/08/23 04:08:13;;;;;;;3.30;3.00;;;15.70;85.20;;;;;;5057603;28;20636;-81
2022/08/23 04:10:41;;;;;;;2.40;2.20;;;15.70;84.40;;;;;;5060221;28;21268;-84
2022/08/23 04:13:09;;;;;;;2.03;1.83;;;15.60;84.10;;;;;;5047670;28;21237;-82
2022/08/23 04:15:38;;;;;;;2.53;2.33;;;15.60;85.50;;;;;;5053524;28;20726;-81
2022/08/23 04:18:06;;;;;;;2.60;1.97;;;15.50;86.00;;;;;;5062009;28;20679;-83
2022/08/23 04:20:33;;;;;;;3.50;3.20;;;15.50;87.20;;;;;;5047801;28;20619;-84
2022/08/23 04:23:01;;;;;;;2.50;2.30;;;15.40;87.50;;;;;;5053572;28;20985;-82
2022/08/23 04:25:32;;;;;;;2.23;2.13;;;15.50;85.80;;;;;;5047132;28;20638;-84
2022/08/23 04:27:59;;;;;;;2.87;1.70;;;15.50;86.20;;;;;;5057841;28;20795;-82
2022/08/23 04:30:26;;;;;;;2.33;2.23;;;15.60;85.20;;;;;;5048755;28;20638;-81
2022/08/23 04:32:56;;;;;;;2.40;2.20;;;15.50;84.70;;;;;;5055846;28;20641;-84
2022/08/23 04:35:25;;;;;;;2.43;2.23;;;15.60;84.70;;;;;;5054902;28;20630;-84
2022/08/23 04:37:52;;;;;;;2.80;2.20;;;15.50;86.70;;;;;;5053214;28;20777;-82
2022/08/23 04:43:03;;;;;;;3.37;2.33;;;15.40;88.20;;;;;;5060551;28;20631;-81
2022/08/23 04:45:31;;;;;;;2.33;2.23;;;15.40;88.90;;;;;;5055751;28;20734;-80
2022/08/23 04:47:59;;;;;;;3.63;2.33;;;15.50;87.30;;;;;;5047513;28;20641;-81
2022/08/23 04:50:26;;;;;;;3.17;2.43;;;15.60;85.30;;;;;;5047358;28;21172;-83
2022/08/23 04:52:53;;;;;;;2.60;2.37;;;15.60;85.80;;;;;;5058067;28;20983;-84
2022/08/23 04:55:20;;;;;;;2.00;1.80;;;15.60;85.10;;;;;;5056657;28;20661;-83
2022/08/23 04:57:47;;;;;;;2.60;2.40;;;15.70;85.40;;;;;;5046745;28;20677;-82
2022/08/23 05:00:16;;;;;;;2.33;2.23;;;15.70;86.00;;;;;;5053699;28;20679;-82
2022/08/23 05:02:45;;;;;;;2.60;1.90;;;15.60;87.60;;;;;;5060303;28;20644;-82
2022/08/23 05:05:14;;;;;;;2.47;2.27;;;15.60;87.80;;;;;;5066804;28;20637;-83
2022/08/23 05:07:45;;;;;;;3.30;2.60;;;15.70;87.90;;;;;;5050437;28;20621;-79
2022/08/23 05:10:16;;;;;;;2.50;2.30;;;15.70;86.40;;;;;;5054977;28;20634;-82
2022/08/23 05:12:49;;;;;;;3.40;3.10;;;15.80;87.90;;;;;;5047843;28;20630;-81
2022/08/23 05:15:16;;;;;;;2.80;2.53;;;15.80;89.20;;;;;;5062481;28;20737;-81
2022/08/23 05:17:43;;;;;;;4.05;3.65;;;15.90;87.90;;;;;;5048959;28;20824;-82
2022/08/23 05:20:11;;;;;;;2.27;2.07;;;16.00;86.70;;;;;;5053866;28;20648;-85
2022/08/23 05:22:42;;;;;;;3.87;2.53;;;16.00;88.80;;;;;;5050619;28;21006;-86
2022/08/23 05:25:09;;;;;;;2.37;2.17;;;16.20;85.90;;;;;;5067240;28;20732;-85
2022/08/23 05:27:42;;;;;;;2.80;2.57;;;16.30;86.40;;;;;;5050545;28;20683;-84
2022/08/23 05:30:10;;;;;;;2.23;2.13;;;16.30;86.00;;;;;;5048905;28;21239;-85
2022/08/23 05:32:39;;;;;;;2.70;2.57;;;16.50;85.50;;;;;;5051826;28;20641;-84
2022/08/23 05:35:07;;;;;;;3.00;2.70;;;16.60;86.30;;;;;;5044729;28;21042;-83
2022/08/23 05:37:35;;;;;;;3.40;2.30;;;16.60;85.30;;;;;;5053881;28;20773;-83
2022/08/23 05:40:04;;;;;;;2.50;2.30;;;16.90;82.80;;;;;;5065971;28;20623;-83
2022/08/23 05:42:32;;;;;;;3.30;1.93;;;17.00;81.80;;;;;;5066240;28;20657;-86
2022/08/23 05:44:59;;;;;;;2.70;2.17;;;17.00;80.40;;;;;;5059146;28;20630;-87
2022/08/23 05:47:28;;;;;;;2.37;2.00;;;17.10;81.00;;;;;;5049613;28;20634;-86
2022/08/23 05:49:58;;;;;;;1.90;1.80;;;17.40;79.70;;;;;;5064616;28;20659;-86
2022/08/23 05:52:25;;;;;;;2.37;2.10;;;17.40;80.00;;;;;;5068999;28;20610;-85
2022/08/23 05:54:54;;;;;;;3.50;3.13;;;17.50;79.00;;;;;;5059217;28;21383;-85
2022/08/23 05:57:22;;;;;;;3.60;2.40;;;17.50;79.50;;;;;;5048645;28;20723;-84
2022/08/23 05:59:49;;;;;;;2.53;2.33;;;17.50;81.00;;;;;;5049751;28;20633;-82
2022/08/23 06:02:16;;;;;;;3.27;2.90;;;17.50;80.90;;;;;;5066956;28;20656;-84
2022/08/23 06:04:42;;;;;;;3.10;2.40;;;17.70;80.60;;;;;;5064888;28;20735;-85
2022/08/23 06:07:10;;;;;;;2.30;2.10;;;17.70;81.50;;;;;;5048247;28;21269;-86
2022/08/23 06:09:37;;;;;;;3.93;2.20;;;18.00;77.40;;;;;;5048802;28;20630;-87
2022/08/23 06:12:05;;;;;;;2.60;2.40;;;18.00;77.90;;;;;;5049317;28;21156;-87
2022/08/23 06:14:33;;;;;;;3.50;2.77;;;18.10;78.70;;;;;;5049542;28;20676;-86
2022/08/23 06:17:00;;;;;;;2.60;2.40;;;18.30;78.30;;;;;;5048812;28;21238;-87
2022/08/23 06:19:27;;;;;;;3.47;2.60;;;18.40;77.30;;;;;;5049840;28;20725;-85
2022/08/23 06:21:54;;;;;;;2.93;2.47;;;18.50;77.20;;;;;;5049831;28;20645;-83
2022/08/23 06:24:22;;;;;;;6.27;3.07;;;18.50;78.50;;;;;;5049884;28;20710;-85
2022/08/23 06:26:48;;;;;;;1.93;1.83;;;18.50;79.40;;;;;;5049529;28;20745;-84
2022/08/23 06:29:19;;;;;;;2.77;2.57;;;18.60;79.60;;;;;;5049959;28;21278;-88
2022/08/23 06:31:50;;;;;;;2.90;2.70;;;18.70;77.50;;;;;;5050025;28;21299;-85
2022/08/23 06:34:20;;;;;;;11.53;3.37;;;19.00;75.90;;;;;;5053782;28;20736;-85
2022/08/23 06:36:48;;;;;;;3.10;2.37;;;19.10;75.80;;;;;;5068892;28;20763;-84
2022/08/23 06:39:18;;;;;;;3.07;2.77;;;19.20;73.70;;;;;;5070118;28;20609;-85
2022/08/23 06:41:47;;;;;;;8.13;3.30;;;19.30;75.00;;;;;;5069761;28;20617;-84
2022/08/23 06:44:14;;;;;;;2.67;2.47;;;19.50;74.30;;;;;;5069798;28;20635;-83
2022/08/23 06:46:41;;;;;;;2.60;2.40;;;19.70;73.40;;;;;;5069137;28;20971;-84
2022/08/23 06:49:10;;;;;;;2.70;2.47;;;19.80;72.60;;;;;;5069360;28;20675;-84
2022/08/23 06:51:39;;;;;;;2.70;2.20;;;19.90;72.60;;;;;;5068385;28;20625;-85
2022/08/23 06:54:09;;;;;;;3.70;2.77;;;20.10;71.40;;;;;;5061506;28;20733;-82
2022/08/23 06:56:36;;;;;;;2.50;2.30;;;20.10;72.90;;;;;;5047730;28;20680;-84
2022/08/23 06:59:05;;;;;;;2.70;2.50;;;20.10;72.50;;;;;;5050703;28;20669;-86
2022/08/23 07:01:37;;;;;;;3.10;2.30;;;20.20;71.90;;;;;;5062051;28;21072;-83
2022/08/23 07:04:06;;;;;;;3.93;2.60;;;20.40;71.50;;;;;;5056736;28;21328;-85
2022/08/23 07:06:34;;;;;;;2.60;2.40;;;20.50;70.40;;;;;;5067101;28;20641;-85
2022/08/23 07:09:02;;;;;;;2.70;2.47;;;20.60;70.20;;;;;;5064590;28;20617;-87
2022/08/23 07:11:31;;;;;;;3.97;3.13;;;20.70;71.20;;;;;;5062784;28;21215;-85
2022/08/23 07:13:59;;;;;;;2.40;2.30;;;20.60;71.80;;;;;;5048960;28;20688;-83
2022/08/23 07:16:31;;;;;;;2.40;2.20;;;20.60;70.60;;;;;;5055621;28;20665;-87
2022/08/23 07:18:58;;;;;;;3.13;2.83;;;20.60;71.00;;;;;;5066416;28;20700;-87
2022/08/23 07:21:25;;;;;;;2.47;2.27;;;20.60;70.80;;;;;;5067916;28;20653;-83
2022/08/23 07:23:54;;;;;;;2.50;2.30;;;20.80;70.90;;;;;;5066824;28;20653;-84
2022/08/23 07:26:22;;;;;;;2.53;2.33;;;20.90;71.00;;;;;;5064235;28;20964;-84
2022/08/23 07:28:50;;;;;;;3.17;2.87;;;21.10;71.20;;;;;;5060958;28;20622;-85
2022/08/23 07:31:21;;;;;;;3.07;2.87;;;21.40;69.30;;;;;;5065674;28;20726;-85
2022/08/23 07:33:49;;;;;;;4.33;2.53;;;21.60;69.20;;;;;;5057406;28;20638;-87
2022/08/23 07:36:21;;;;;;;3.10;2.80;;;21.60;69.50;;;;;;5056582;28;21021;-86
2022/08/23 07:38:48;;;;;;;2.73;2.53;;;21.50;69.80;;;;;;5059130;28;20658;-83
2022/08/23 07:41:17;;;;;;;2.70;2.50;;;21.40;68.70;;;;;;5059258;28;20665;-85
2022/08/23 07:43:44;;;;;;;3.10;2.80;;;21.80;67.40;;;;;;5048607;28;20679;-85
2022/08/23 07:46:11;;;;;;;3.60;3.00;;;22.10;65.30;;;;;;5051996;28;20747;-84
2022/08/23 07:48:39;;;;;;;1.90;1.80;;;22.10;66.90;;;;;;5068056;28;20660;-85
2022/08/23 07:51:08;;;;;;;2.67;2.47;;;22.10;67.00;;;;;;5055031;28;20638;-85
2022/08/23 07:53:35;;;;;;;1.90;1.80;;;22.10;66.40;;;;;;5062364;28;20736;-86
2022/08/23 07:56:04;;;;;;;3.20;3.00;;;22.30;65.90;;;;;;5054277;28;20635;-86
2022/08/23 07:58:33;;;;;;;2.37;2.17;;;22.40;65.30;;;;;;5051085;28;20765;-85
2022/08/23 08:01:10;;;;;;;8.50;2.80;;;22.50;64.70;;;;;;5065226;28;20629;-88
2022/08/23 08:03:38;;;;;;;2.83;2.47;;;22.70;64.30;;;;;;5064503;28;21229;-84
2022/08/23 08:06:08;;;;;;;2.00;1.90;;;22.80;63.20;;;;;;5066471;28;20717;-84
2022/08/23 08:08:35;;;;;;;2.13;2.00;;;23.00;63.20;;;;;;5058239;28;20658;-86
2022/08/23 08:11:02;;;;;;;2.50;2.40;;;23.00;61.60;;;;;;5057384;28;21579;-86
2022/08/23 08:13:30;;;;;;;2.30;2.10;;;23.10;61.90;;;;;;5067398;28;20633;-84
2022/08/23 08:15:58;;;;;;;6.87;2.17;;;23.40;61.60;;;;;;5048196;28;20626;-85
2022/08/23 08:18:25;;;;;;;1.77;1.67;;;23.20;62.40;;;;;;5063046;28;20669;-85
2022/08/23 08:20:52;;;;;;;2.00;1.90;;;23.30;60.60;;;;;;5059745;28;20657;-85
2022/08/23 08:23:19;;;;;;;2.50;2.30;;;23.40;61.10;;;;;;5056226;28;20724;-84
2022/08/23 08:25:46;;;;;;;1.70;1.60;;;23.60;59.90;;;;;;5067382;28;20621;-85
2022/08/23 08:28:13;;;;;;;3.10;2.80;;;23.60;59.70;;;;;;5061203;28;20622;-85
2022/08/23 08:30:40;;;;;;;2.70;1.90;;;23.90;58.70;;;;;;5047739;28;20720;-86
2022/08/23 08:33:08;;;;;;;2.40;2.20;;;23.90;58.50;;;;;;5063893;28;20630;-85
2022/08/23 08:35:35;;;;;;;2.13;1.77;;;23.90;59.00;;;;;;5052619;28;20659;-86
2022/08/23 08:38:02;;;;;;;2.47;2.33;;;24.00;58.60;;;;;;5063832;28;20705;-82
2022/08/23 08:40:36;;;;;;;2.27;2.07;;;24.20;58.90;;;;;;5047562;28;20650;-85
2022/08/23 08:43:27;;;;;;;2.47;2.27;;;24.40;58.40;;;;;;5060968;28;20756;-84
2022/08/23 08:46:04;;;;;;;2.70;2.00;;;24.40;56.80;;;;;;5057050;28;20672;-86
2022/08/23 08:48:40;;;;;;;3.00;2.10;;;24.50;57.60;;;;;;5062186;28;20682;-84
2022/08/23 08:51:19;;;;;;;1.70;1.60;;;24.50;56.80;;;;;;5060743;28;20637;-85
2022/08/23 08:53:50;;;;;;;3.47;1.93;;;24.40;57.50;;;;;;5049074;28;20634;-85
2022/08/23 08:56:20;;;;;;;2.00;1.90;;;24.70;54.60;;;;;;5049273;28;20637;-87
2022/08/23 08:58:50;;;;;;;2.10;2.00;;;24.80;55.10;;;;;;5054366;28;20673;-83
2022/08/23 09:01:17;;;;;;;2.87;2.67;;;24.70;56.40;;;;;;5062173;28;20623;-84
2022/08/23 09:03:47;;;;;;;1.73;1.63;;;24.80;55.70;;;;;;5053248;28;21266;-85
2022/08/23 09:06:22;;;;;;;1.63;1.53;;;24.80;55.60;;;;;;5060290;28;21152;-86
2022/08/23 09:09:02;;;;;;;2.60;2.17;;;25.00;54.00;;;;;;5063684;28;20732;-86
2022/08/23 09:11:44;;;;;;;2.20;2.00;;;25.20;53.20;;;;;;5051251;28;20638;-85
2022/08/23 09:14:30;;;;;;;2.40;2.20;;;25.10;53.60;;;;;;5063520;28;20626;-85
2022/08/23 09:17:02;;;;;;;2.17;1.97;;;25.30;54.70;;;;;;5055766;28;20631;-85
2022/08/23 09:19:34;;;;;;;2.17;2.00;;;25.50;53.90;;;;;;5047651;28;20674;-85
2022/08/23 09:22:04;;;;;;;2.53;1.87;;;25.50;52.50;;;;;;5051144;28;20662;-85
2022/08/23 09:24:31;;;;;;;2.23;2.03;;;25.70;51.70;;;;;;5060732;28;20633;-84
2022/08/23 09:26:58;;;;;;;3.47;2.70;;;25.70;52.60;;;;;;5072265;28;20678;-85
2022/08/23 09:29:28;;;;;;;2.03;1.93;;;25.90;51.90;;;;;;5073622;28;20668;-85
2022/08/23 09:32:00;;;;;;;2.83;2.27;;;26.00;50.70;;;;;;5070513;28;20657;-85
2022/08/23 09:34:42;;;;;;;3.10;1.73;;;26.00;50.10;;;;;;5064561;28;21013;-86
2022/08/23 09:37:16;;;;;;;4.23;2.47;;;26.00;50.60;;;;;;5056798;28;20632;-85
2022/08/23 09:39:49;;;;;;;2.20;2.10;;;26.10;51.60;;;;;;5054347;28;20669;-87
2022/08/23 09:42:31;;;;;;;2.80;2.33;;;26.20;51.40;;;;;;5056265;28;20630;-86
2022/08/23 09:44:59;;;;;;;2.03;1.93;;;26.20;50.20;;;;;;5053725;28;20680;-86
2022/08/23 09:47:33;;;;;;;1.73;1.63;;;26.40;49.20;;;;;;5064292;28;20636;-85
2022/08/23 09:50:15;;;;;;;2.53;1.83;;;26.50;49.30;;;;;;5071498;28;20630;-85
2022/08/23 09:52:43;;;;;;;3.13;2.40;;;26.50;49.80;;;;;;5053736;28;21329;-87
2022/08/23 09:55:27;;;;;;;2.17;2.07;;;26.60;47.90;;;;;;5063816;28;21194;-86
2022/08/23 09:57:54;;;;;;;1.73;1.63;;;26.40;49.70;;;;;;5060934;28;20717;-87
2022/08/23 10:00:26;;;;;;;2.90;1.90;;;26.30;48.30;;;;;;5067411;28;21049;-86
2022/08/23 10:02:56;;;;;;;1.50;1.40;;;26.40;49.50;;;;;;5058172;28;20626;-84
2022/08/23 10:05:37;;;;;;;1.53;1.40;;;26.50;48.50;;;;;;5065923;28;20621;-85
2022/08/23 10:08:05;;;;;;;1.77;1.67;;;26.70;47.50;;;;;;5058748;28;20625;-86
2022/08/23 10:10:42;;;;;;;1.77;1.67;;;26.90;48.00;;;;;;5064410;28;20729;-84
2022/08/23 10:13:10;;;;;;;1.60;1.40;;;27.00;46.50;;;;;;5068090;28;20627;-85
2022/08/23 10:15:49;;;;;;;1.97;1.77;;;27.00;47.60;;;;;;5072357;28;22030;-86
2022/08/23 10:18:27;;;;;;;2.20;2.00;;;27.00;47.80;;;;;;5072320;28;21107;-86
2022/08/23 10:21:04;;;;;;;1.57;1.47;;;27.10;47.70;;;;;;5058412;28;20825;-85
2022/08/23 10:23:47;;;;;;;1.90;1.70;;;27.00;47.00;;;;;;5060209;28;20619;-86
2022/08/23 10:26:20;;;;;;;2.10;2.00;;;27.20;47.10;;;;;;5072717;28;20625;-86
2022/08/23 10:31:46;;;;;;;2.53;2.00;;;27.30;47.60;;;;;;5064215;28;21140;-86
2022/08/23 10:34:39;;;;;;;1.90;1.80;;;27.30;45.50;;;;;;5069400;28;20648;-88
2022/08/23 10:37:23;;;;;;;2.10;2.00;;;27.10;47.10;;;;;;5061522;28;20694;-85
2022/08/23 10:39:59;;;;;;;2.40;1.97;;;27.10;46.90;;;;;;5054539;28;20768;-86
2022/08/23 10:42:35;;;;;;;1.67;1.57;;;27.40;45.00;;;;;;5059269;28;20633;-87
2022/08/23 10:45:16;;;;;;;1.77;1.67;;;27.50;44.80;;;;;;5059313;28;20628;-86
2022/08/23 10:48:10;;;;;;;3.47;1.50;;;27.60;47.80;;;;;;5069815;28;20633;-85
2022/08/23 10:50:44;;;;;;;2.30;2.20;;;27.40;46.10;;;;;;5069301;28;21218;-86
2022/08/23 10:53:16;;;;;;;1.93;1.83;;;27.60;44.90;;;;;;5069294;28;20863;-85
2022/08/23 10:56:01;;;;;;;1.60;1.50;;;27.80;44.50;;;;;;5052778;28;20687;-86
2022/08/23 10:58:32;;;;;;;1.77;1.50;;;27.70;43.40;;;;;;5050418;28;20661;-87
2022/08/23 11:01:00;;;;;;;2.03;1.80;;;27.70;43.30;;;;;;5054726;28;20638;-86
2022/08/23 11:03:29;;;;;;;1.77;1.53;;;27.40;45.90;;;;;;5052366;28;21058;-87
2022/08/23 11:06:25;;;;;;;3.27;3.00;;;27.60;46.40;;;;;;5062101;28;20631;-86
2022/08/23 11:09:01;;;;;;;2.43;2.13;;;27.90;43.90;;;;;;5065268;28;20618;-86
2022/08/23 11:11:44;;;;;;;1.30;1.20;;;28.00;45.00;;;;;;5065908;28;20695;-85
2022/08/23 11:14:13;;;;;;;1.80;1.60;;;28.20;43.80;;;;;;5054858;28;20624;-86
2022/08/23 11:16:45;;;;;;;2.80;2.40;;;28.30;43.20;;;;;;5069573;28;20660;-86
2022/08/23 11:19:14;;;;;;;1.70;1.60;;;28.40;46.40;;;;;;5069286;28;20687;-86
2022/08/23 11:21:48;;;;;;;2.63;1.90;;;28.40;43.30;;;;;;5067153;28;21180;-86
2022/08/23 11:24:49;;;;;;;1.50;1.37;;;28.70;43.80;;;;;;5068212;28;20625;-86
2022/08/23 11:27:27;;;;;;;2.33;2.13;;;28.80;43.20;;;;;;5067586;28;20621;-85
2022/08/23 11:29:54;;;;;;;1.87;1.77;;;28.90;43.00;;;;;;5056603;28;20650;-86
2022/08/23 11:32:33;;;;;;;1.70;1.60;;;28.80;42.50;;;;;;5050633;28;20631;-85
2022/08/23 11:35:26;;;;;;;1.47;1.40;;;28.80;43.80;;;;;;5054006;28;20967;-86
2022/08/23 11:37:59;;;;;;;1.70;1.57;;;29.00;44.00;;;;;;5061023;28;20671;-87
2022/08/23 11:40:59;;;;;;;1.83;1.73;;;29.30;43.70;;;;;;5059779;28;20657;-87
2022/08/23 11:43:34;;;;;;;2.17;1.73;;;29.40;41.80;;;;;;5054295;28;20724;-86
2022/08/23 11:46:30;;;;;;;1.80;1.70;;;29.70;42.20;;;;;;5049227;28;20630;-86
2022/08/23 11:49:18;;;;;;;1.90;1.50;;;30.00;42.70;;;;;;5060010;28;21270;-84
2022/08/23 11:51:54;;;;;;;2.60;2.40;;;30.30;42.40;;;;;;5033192;28;20633;-86
2022/08/23 11:54:37;;;;;;;1.80;1.70;;;30.80;41.90;;;;;;5055944;28;20640;-87
2022/08/23 11:57:34;;;;;;;2.23;2.07;;;31.10;41.30;;;;;;5049564;28;20625;-87
2022/08/23 12:00:15;;;;;;;2.00;1.90;;;31.90;41.80;;;;;;5057115;28;21244;-85
2022/08/23 12:02:52;;;;;;;1.43;1.43;;;32.50;40.70;;;;;;5065549;28;20998;-87
2022/08/23 12:05:50;;;;;;;2.10;1.63;;;32.90;38.60;;;;;;5063547;28;20651;-87
2022/08/23 12:08:32;;;;;;;1.37;1.37;;;33.50;38.40;;;;;;5055681;28;21029;-87
2022/08/23 12:11:06;;;;;;;1.70;1.60;;;34.20;38.40;;;;;;5064688;28;20624;-85
2022/08/23 12:13:51;;;;;;;1.50;1.40;;;34.40;36.60;;;;;;5059837;28;20637;-87
2022/08/23 12:16:34;;;;;;;1.80;1.70;;;35.10;37.20;;;;;;5067520;28;20289;-87
2022/08/23 12:19:07;;;;;;;1.77;1.67;;;35.30;37.40;;;;;;5066305;28;20226;-88
2022/08/23 12:21:44;;;;;;;1.70;1.60;;;35.00;35.70;;;;;;5059297;28;20287;-87
2022/08/23 12:24:18;;;;;;;1.60;1.50;;;35.60;35.10;;;;;;5062979;28;20228;-87
2022/08/23 12:26:52;;;;;;;1.88;1.75;;;36.00;36.40;;;;;;5064754;28;20737;-87
2022/08/23 12:29:31;;;;;;;1.58;1.48;;;36.20;33.60;;;;;;5067814;28;20201;-87
2022/08/23 12:32:04;;;;;;;2.00;1.90;;;36.10;34.30;;;;;;5063334;28;20214;-87
2022/08/23 12:34:40;;;;;;;2.10;1.90;;;36.20;33.50;;;;;;5052352;28;20278;-87
2022/08/23 12:37:14;;;;;;;1.67;1.58;;;36.20;34.40;;;;;;5062610;28;20233;-87
2022/08/23 12:39:49;;;;;;;1.83;1.73;;;36.40;33.50;;;;;;5047967;28;20236;-86
2022/08/23 12:42:18;;;;;;;1.63;1.52;;;36.40;33.00;;;;;;5064449;28;20200;-87
2022/08/23 12:45:00;;;;;;;2.45;1.52;;;36.40;33.70;;;;;;5065569;28;20678;-87
2022/08/23 12:47:27;;;;;;;1.80;1.70;;;36.50;34.40;;;;;;5057062;28;20209;-89
2022/08/23 12:49:57;;;;;;;1.63;1.63;;;36.80;35.10;;;;;;5047891;28;20268;-87
2022/08/23 12:52:26;;;;;;;1.55;1.45;;;37.20;34.40;;;;;;5047586;28;20230;-87
2022/08/23 12:54:56;;;;;;;1.85;1.75;;;37.70;33.70;;;;;;5048840;28;20203;-87
2022/08/23 12:57:31;;;;;;;1.80;1.70;;;37.90;33.10;;;;;;5064696;28;20218;-88
2022/08/23 13:00:10;;;;;;;1.75;1.65;;;37.90;33.10;;;;;;5055469;28;20863;-88
2022/08/23 13:02:38;;;;;;;1.52;1.48;;;37.70;34.30;;;;;;5059777;28;20831;-88
2022/08/23 13:05:10;;;;;;;1.40;1.40;;;37.90;33.30;;;;;;5060471;28;20213;-87
2022/08/23 13:07:39;;;;;;;1.50;1.50;;;38.30;33.40;;;;;;5066201;28;20285;-87
2022/08/23 13:10:08;;;;;;;1.30;1.30;;;38.50;32.80;;;;;;5047491;28;20212;-87
2022/08/23 13:12:36;;;;;;;4.03;1.90;;;38.30;32.30;;;;;;5061802;28;20209;-89
2022/08/23 13:15:05;;;;;;;1.50;1.40;;;38.50;33.20;;;;;;5056174;28;20218;-87
2022/08/23 13:17:38;;;;;;;2.20;2.10;;;38.60;33.10;;;;;;5063152;28;20245;-88
2022/08/23 13:20:18;;;;;;;1.70;1.60;;;38.50;33.40;;;;;;5046928;28;20917;-88